sensor_id;sensor_type;location;lat;lon;timestamp;P1;durP1;ratioP1;P2;durP2;ratioP2
9821;SDS011;4950;46.042;14.472;2023-02-28T00:00:05;14.97;;;8.63;;
9821;SDS011;4950;46.042;14.472;2023-02-28T00:02:35;13.40;;;8.53;;
9821;SDS011;4950;46.042;14.472;2023-02-28T00:05:02;15.40;;;8.00;;
9821;SDS011;4950;46.042;14.472;2023-02-28T00:07:30;12.60;;;8.07;;
9821;SDS011;4950;46.042;14.472;2023-02-28T00:09:57;12.80;;;7.60;;
9821;SDS011;4950;46.042;14.472;2023-02-28T00:12:26;15.80;;;8.57;;
9821;SDS011;4950;46.042;14.472;2023-02-28T00:14:53;14.43;;;8.10;;
9821;SDS011;4950;46.042;14.472;2023-02-28T00:17:20;19.53;;;8.60;;
9821;SDS011;4950;46.042;14.472;2023-02-28T00:19:47;14.20;;;8.73;;
9821;SDS011;4950;46.042;14.472;2023-02-28T00:22:14;15.80;;;8.83;;
9821;SDS011;4950;46.042;14.472;2023-02-28T00:24:41;13.60;;;8.43;;
9821;SDS011;4950;46.042;14.472;2023-02-28T00:27:09;15.73;;;9.40;;
9821;SDS011;4950;46.042;14.472;2023-02-28T00:29:38;15.10;;;8.30;;
9821;SDS011;4950;46.042;14.472;2023-02-28T00:32:05;14.90;;;8.60;;
9821;SDS011;4950;46.042;14.472;2023-02-28T00:34:32;13.67;;;8.43;;
9821;SDS011;4950;46.042;14.472;2023-02-28T00:39:29;14.83;;;8.33;;
9821;SDS011;4950;46.042;14.472;2023-02-28T00:41:56;16.33;;;9.70;;
9821;SDS011;4950;46.042;14.472;2023-02-28T00:44:22;15.57;;;9.43;;
9821;SDS011;4950;46.042;14.472;2023-02-28T00:46:50;16.33;;;9.30;;
9821;SDS011;4950;46.042;14.472;2023-02-28T00:49:19;19.95;;;9.88;;
9821;SDS011;4950;46.042;14.472;2023-02-28T00:51:46;16.43;;;8.83;;
9821;SDS011;4950;46.042;14.472;2023-02-28T00:54:13;15.67;;;9.73;;
9821;SDS011;4950;46.042;14.472;2023-02-28T00:56:39;13.67;;;8.83;;
9821;SDS011;4950;46.042;14.472;2023-02-28T00:59:07;19.23;;;9.67;;
9821;SDS011;4950;46.042;14.472;2023-02-28T01:01:34;13.97;;;8.80;;
9821;SDS011;4950;46.042;14.472;2023-02-28T01:04:02;16.07;;;9.30;;
9821;SDS011;4950;46.042;14.472;2023-02-28T01:06:29;13.43;;;8.63;;
9821;SDS011;4950;46.042;14.472;2023-02-28T01:08:56;15.23;;;8.63;;
9821;SDS011;4950;46.042;14.472;2023-02-28T01:11:23;15.80;;;8.97;;
9821;SDS011;4950;46.042;14.472;2023-02-28T01:13:50;13.63;;;8.50;;
9821;SDS011;4950;46.042;14.472;2023-02-28T01:16:17;15.63;;;9.53;;
9821;SDS011;4950;46.042;14.472;2023-02-28T01:18:44;15.77;;;8.60;;
9821;SDS011;4950;46.042;14.472;2023-02-28T01:21:14;16.10;;;9.00;;
9821;SDS011;4950;46.042;14.472;2023-02-28T01:23:42;19.40;;;9.60;;
9821;SDS011;4950;46.042;14.472;2023-02-28T01:26:10;15.00;;;9.50;;
9821;SDS011;4950;46.042;14.472;2023-02-28T01:28:38;14.13;;;8.82;;
9821;SDS011;4950;46.042;14.472;2023-02-28T01:31:05;14.90;;;9.20;;
9821;SDS011;4950;46.042;14.472;2023-02-28T01:33:32;21.57;;;8.93;;
9821;SDS011;4950;46.042;14.472;2023-02-28T01:35:59;16.50;;;9.30;;
9821;SDS011;4950;46.042;14.472;2023-02-28T01:38:28;13.90;;;9.03;;
9821;SDS011;4950;46.042;14.472;2023-02-28T01:40:55;14.63;;;9.07;;
9821;SDS011;4950;46.042;14.472;2023-02-28T01:43:23;15.23;;;9.47;;
9821;SDS011;4950;46.042;14.472;2023-02-28T01:45:51;14.07;;;9.30;;
9821;SDS011;4950;46.042;14.472;2023-02-28T01:48:18;14.47;;;8.70;;
9821;SDS011;4950;46.042;14.472;2023-02-28T01:50:47;16.83;;;8.57;;
9821;SDS011;4950;46.042;14.472;2023-02-28T01:53:15;17.97;;;9.23;;
9821;SDS011;4950;46.042;14.472;2023-02-28T01:58:14;12.97;;;8.13;;
9821;SDS011;4950;46.042;14.472;2023-02-28T02:00:42;15.03;;;8.47;;
9821;SDS011;4950;46.042;14.472;2023-02-28T02:03:09;14.83;;;8.20;;
9821;SDS011;4950;46.042;14.472;2023-02-28T02:05:39;15.00;;;9.63;;
9821;SDS011;4950;46.042;14.472;2023-02-28T02:08:08;15.33;;;9.23;;
9821;SDS011;4950;46.042;14.472;2023-02-28T02:10:39;13.60;;;8.97;;
9821;SDS011;4950;46.042;14.472;2023-02-28T02:13:17;14.97;;;9.20;;
9821;SDS011;4950;46.042;14.472;2023-02-28T02:15:54;16.50;;;10.07;;
9821;SDS011;4950;46.042;14.472;2023-02-28T02:18:30;15.77;;;8.63;;
9821;SDS011;4950;46.042;14.472;2023-02-28T02:27:23;19.63;;;10.17;;
9821;SDS011;4950;46.042;14.472;2023-02-28T02:33:11;18.98;;;11.05;;
9821;SDS011;4950;46.042;14.472;2023-02-28T02:36:04;21.27;;;10.70;;
9821;SDS011;4950;46.042;14.472;2023-02-28T02:38:34;20.13;;;10.83;;
9821;SDS011;4950;46.042;14.472;2023-02-28T02:41:08;22.43;;;12.10;;
9821;SDS011;4950;46.042;14.472;2023-02-28T02:43:40;17.27;;;11.03;;
9821;SDS011;4950;46.042;14.472;2023-02-28T02:46:14;17.77;;;11.17;;
9821;SDS011;4950;46.042;14.472;2023-02-28T02:48:46;16.97;;;10.70;;
9821;SDS011;4950;46.042;14.472;2023-02-28T02:51:16;17.73;;;10.60;;
9821;SDS011;4950;46.042;14.472;2023-02-28T02:53:46;17.43;;;10.87;;
9821;SDS011;4950;46.042;14.472;2023-02-28T02:56:17;18.47;;;12.20;;
9821;SDS011;4950;46.042;14.472;2023-02-28T02:58:47;19.50;;;11.53;;
9821;SDS011;4950;46.042;14.472;2023-02-28T03:01:18;18.25;;;11.80;;
9821;SDS011;4950;46.042;14.472;2023-02-28T03:03:53;19.77;;;11.47;;
9821;SDS011;4950;46.042;14.472;2023-02-28T03:06:23;20.75;;;12.38;;
9821;SDS011;4950;46.042;14.472;2023-02-28T03:08:51;19.27;;;11.17;;
9821;SDS011;4950;46.042;14.472;2023-02-28T03:11:18;21.73;;;11.70;;
9821;SDS011;4950;46.042;14.472;2023-02-28T03:13:52;19.23;;;11.27;;
9821;SDS011;4950;46.042;14.472;2023-02-28T03:16:31;18.30;;;11.17;;
9821;SDS011;4950;46.042;14.472;2023-02-28T03:19:12;19.70;;;12.30;;
9821;SDS011;4950;46.042;14.472;2023-02-28T03:24:24;20.97;;;11.80;;
9821;SDS011;4950;46.042;14.472;2023-02-28T03:26:58;22.73;;;13.07;;
9821;SDS011;4950;46.042;14.472;2023-02-28T03:29:33;23.80;;;12.10;;
9821;SDS011;4950;46.042;14.472;2023-02-28T03:32:03;20.40;;;11.60;;
9821;SDS011;4950;46.042;14.472;2023-02-28T03:34:39;18.87;;;12.43;;
9821;SDS011;4950;46.042;14.472;2023-02-28T03:37:14;19.33;;;11.83;;
9821;SDS011;4950;46.042;14.472;2023-02-28T03:39:45;22.80;;;12.33;;
9821;SDS011;4950;46.042;14.472;2023-02-28T03:42:18;22.47;;;12.90;;
9821;SDS011;4950;46.042;14.472;2023-02-28T03:47:17;22.67;;;12.37;;
9821;SDS011;4950;46.042;14.472;2023-02-28T03:49:50;16.47;;;10.83;;
9821;SDS011;4950;46.042;14.472;2023-02-28T03:52:22;17.87;;;11.27;;
9821;SDS011;4950;46.042;14.472;2023-02-28T03:54:54;17.90;;;10.77;;
9821;SDS011;4950;46.042;14.472;2023-02-28T03:57:27;16.53;;;10.20;;
9821;SDS011;4950;46.042;14.472;2023-02-28T04:00:03;13.47;;;8.37;;
9821;SDS011;4950;46.042;14.472;2023-02-28T04:02:33;16.27;;;10.10;;
9821;SDS011;4950;46.042;14.472;2023-02-28T04:05:00;15.77;;;9.40;;
9821;SDS011;4950;46.042;14.472;2023-02-28T04:07:30;16.40;;;10.00;;
9821;SDS011;4950;46.042;14.472;2023-02-28T04:12:23;16.47;;;9.63;;
9821;SDS011;4950;46.042;14.472;2023-02-28T04:14:50;14.43;;;9.40;;
9821;SDS011;4950;46.042;14.472;2023-02-28T04:17:17;18.33;;;9.33;;
9821;SDS011;4950;46.042;14.472;2023-02-28T04:19:43;15.63;;;9.90;;
9821;SDS011;4950;46.042;14.472;2023-02-28T04:22:10;18.20;;;9.90;;
9821;SDS011;4950;46.042;14.472;2023-02-28T04:24:38;17.97;;;9.47;;
9821;SDS011;4950;46.042;14.472;2023-02-28T04:27:06;16.60;;;10.63;;
9821;SDS011;4950;46.042;14.472;2023-02-28T04:29:34;15.87;;;9.27;;
9821;SDS011;4950;46.042;14.472;2023-02-28T04:32:02;31.93;;;10.63;;
9821;SDS011;4950;46.042;14.472;2023-02-28T04:34:31;18.37;;;10.10;;
9821;SDS011;4950;46.042;14.472;2023-02-28T04:36:58;15.67;;;9.83;;
9821;SDS011;4950;46.042;14.472;2023-02-28T04:39:25;19.97;;;10.67;;
9821;SDS011;4950;46.042;14.472;2023-02-28T04:41:53;16.30;;;10.30;;
9821;SDS011;4950;46.042;14.472;2023-02-28T04:44:20;17.60;;;9.93;;
9821;SDS011;4950;46.042;14.472;2023-02-28T04:46:48;16.73;;;9.47;;
9821;SDS011;4950;46.042;14.472;2023-02-28T04:49:15;20.07;;;10.07;;
9821;SDS011;4950;46.042;14.472;2023-02-28T04:51:42;16.90;;;9.70;;
9821;SDS011;4950;46.042;14.472;2023-02-28T04:54:08;15.30;;;8.90;;
9821;SDS011;4950;46.042;14.472;2023-02-28T04:56:35;17.43;;;9.70;;
9821;SDS011;4950;46.042;14.472;2023-02-28T04:59:03;16.60;;;9.97;;
9821;SDS011;4950;46.042;14.472;2023-02-28T05:01:31;13.57;;;8.97;;
9821;SDS011;4950;46.042;14.472;2023-02-28T05:03:59;17.03;;;10.37;;
9821;SDS011;4950;46.042;14.472;2023-02-28T05:06:28;15.55;;;9.57;;
9821;SDS011;4950;46.042;14.472;2023-02-28T05:08:56;16.67;;;10.27;;
9821;SDS011;4950;46.042;14.472;2023-02-28T05:11:23;15.00;;;8.53;;
9821;SDS011;4950;46.042;14.472;2023-02-28T05:13:51;18.73;;;10.20;;
9821;SDS011;4950;46.042;14.472;2023-02-28T05:16:20;15.33;;;9.57;;
9821;SDS011;4950;46.042;14.472;2023-02-28T05:18:47;15.23;;;9.20;;
9821;SDS011;4950;46.042;14.472;2023-02-28T05:24:00;19.43;;;9.80;;
9821;SDS011;4950;46.042;14.472;2023-02-28T05:26:28;14.47;;;10.10;;
9821;SDS011;4950;46.042;14.472;2023-02-28T05:28:55;16.93;;;9.10;;
9821;SDS011;4950;46.042;14.472;2023-02-28T05:31:23;14.13;;;9.10;;
9821;SDS011;4950;46.042;14.472;2023-02-28T05:33:50;15.47;;;9.37;;
9821;SDS011;4950;46.042;14.472;2023-02-28T05:36:17;14.13;;;9.13;;
9821;SDS011;4950;46.042;14.472;2023-02-28T05:38:45;18.03;;;9.97;;
9821;SDS011;4950;46.042;14.472;2023-02-28T05:41:13;14.77;;;9.65;;
9821;SDS011;4950;46.042;14.472;2023-02-28T05:43:40;21.33;;;10.30;;
9821;SDS011;4950;46.042;14.472;2023-02-28T05:46:08;17.23;;;9.90;;
9821;SDS011;4950;46.042;14.472;2023-02-28T05:48:38;16.50;;;9.98;;
9821;SDS011;4950;46.042;14.472;2023-02-28T05:53:33;18.33;;;10.47;;
9821;SDS011;4950;46.042;14.472;2023-02-28T05:56:01;18.97;;;11.33;;
9821;SDS011;4950;46.042;14.472;2023-02-28T05:58:28;20.07;;;11.20;;
9821;SDS011;4950;46.042;14.472;2023-02-28T06:00:55;15.37;;;10.47;;
9821;SDS011;4950;46.042;14.472;2023-02-28T06:03:22;18.23;;;10.20;;
9821;SDS011;4950;46.042;14.472;2023-02-28T06:05:51;15.90;;;10.57;;
9821;SDS011;4950;46.042;14.472;2023-02-28T06:08:17;17.13;;;10.37;;
9821;SDS011;4950;46.042;14.472;2023-02-28T06:10:44;19.33;;;11.00;;
9821;SDS011;4950;46.042;14.472;2023-02-28T06:13:11;19.23;;;10.13;;
9821;SDS011;4950;46.042;14.472;2023-02-28T06:15:38;16.80;;;10.03;;
9821;SDS011;4950;46.042;14.472;2023-02-28T06:18:05;18.43;;;10.80;;
9821;SDS011;4950;46.042;14.472;2023-02-28T06:20:33;17.23;;;10.47;;
9821;SDS011;4950;46.042;14.472;2023-02-28T06:23:02;16.70;;;9.80;;
9821;SDS011;4950;46.042;14.472;2023-02-28T06:25:29;18.37;;;10.20;;
9821;SDS011;4950;46.042;14.472;2023-02-28T06:27:56;23.80;;;10.90;;
9821;SDS011;4950;46.042;14.472;2023-02-28T06:30:23;18.23;;;11.10;;
9821;SDS011;4950;46.042;14.472;2023-02-28T06:32:52;21.37;;;11.00;;
9821;SDS011;4950;46.042;14.472;2023-02-28T06:35:19;20.83;;;11.73;;
9821;SDS011;4950;46.042;14.472;2023-02-28T06:37:46;20.33;;;11.13;;
9821;SDS011;4950;46.042;14.472;2023-02-28T06:40:14;23.20;;;11.50;;
9821;SDS011;4950;46.042;14.472;2023-02-28T06:42:41;26.43;;;11.87;;
9821;SDS011;4950;46.042;14.472;2023-02-28T06:45:09;24.93;;;11.90;;
9821;SDS011;4950;46.042;14.472;2023-02-28T06:47:36;21.17;;;11.30;;
9821;SDS011;4950;46.042;14.472;2023-02-28T06:50:03;20.97;;;11.70;;
9821;SDS011;4950;46.042;14.472;2023-02-28T06:52:31;21.50;;;12.10;;
9821;SDS011;4950;46.042;14.472;2023-02-28T06:55:01;21.52;;;11.68;;
9821;SDS011;4950;46.042;14.472;2023-02-28T06:57:29;20.13;;;11.90;;
9821;SDS011;4950;46.042;14.472;2023-02-28T06:59:57;23.63;;;12.52;;
9821;SDS011;4950;46.042;14.472;2023-02-28T07:02:25;19.77;;;11.40;;
9821;SDS011;4950;46.042;14.472;2023-02-28T07:04:51;18.93;;;12.03;;
9821;SDS011;4950;46.042;14.472;2023-02-28T07:07:18;24.40;;;12.03;;
9821;SDS011;4950;46.042;14.472;2023-02-28T07:09:45;19.73;;;12.80;;
9821;SDS011;4950;46.042;14.472;2023-02-28T07:12:13;22.07;;;12.60;;
9821;SDS011;4950;46.042;14.472;2023-02-28T07:14:41;25.27;;;12.87;;
9821;SDS011;4950;46.042;14.472;2023-02-28T07:17:08;20.80;;;12.73;;
9821;SDS011;4950;46.042;14.472;2023-02-28T07:19:37;24.20;;;13.23;;
9821;SDS011;4950;46.042;14.472;2023-02-28T07:22:03;20.93;;;11.63;;
9821;SDS011;4950;46.042;14.472;2023-02-28T07:24:30;22.20;;;12.33;;
9821;SDS011;4950;46.042;14.472;2023-02-28T07:26:57;23.60;;;12.30;;
9821;SDS011;4950;46.042;14.472;2023-02-28T07:29:26;19.43;;;11.70;;
9821;SDS011;4950;46.042;14.472;2023-02-28T07:31:54;19.67;;;11.53;;
9821;SDS011;4950;46.042;14.472;2023-02-28T07:34:21;22.17;;;11.90;;
9821;SDS011;4950;46.042;14.472;2023-02-28T07:36:48;23.17;;;12.97;;
9821;SDS011;4950;46.042;14.472;2023-02-28T07:39:18;25.47;;;13.70;;
9821;SDS011;4950;46.042;14.472;2023-02-28T07:41:46;22.00;;;13.13;;
9821;SDS011;4950;46.042;14.472;2023-02-28T07:44:12;26.30;;;13.83;;
9821;SDS011;4950;46.042;14.472;2023-02-28T07:46:39;19.63;;;12.07;;
9821;SDS011;4950;46.042;14.472;2023-02-28T07:49:07;21.80;;;12.83;;
9821;SDS011;4950;46.042;14.472;2023-02-28T07:51:34;24.10;;;12.73;;
9821;SDS011;4950;46.042;14.472;2023-02-28T07:54:01;26.87;;;12.93;;
9821;SDS011;4950;46.042;14.472;2023-02-28T07:56:27;23.00;;;12.20;;
9821;SDS011;4950;46.042;14.472;2023-02-28T07:58:54;25.60;;;14.13;;
9821;SDS011;4950;46.042;14.472;2023-02-28T08:01:21;24.87;;;12.63;;
9821;SDS011;4950;46.042;14.472;2023-02-28T08:03:47;25.17;;;12.50;;
9821;SDS011;4950;46.042;14.472;2023-02-28T08:06:16;25.37;;;13.83;;
9821;SDS011;4950;46.042;14.472;2023-02-28T08:08:45;23.90;;;13.17;;
9821;SDS011;4950;46.042;14.472;2023-02-28T08:11:12;20.17;;;12.30;;
9821;SDS011;4950;46.042;14.472;2023-02-28T08:13:40;22.53;;;12.93;;
9821;SDS011;4950;46.042;14.472;2023-02-28T08:16:07;26.47;;;13.73;;
9821;SDS011;4950;46.042;14.472;2023-02-28T08:18:34;29.23;;;14.07;;
9821;SDS011;4950;46.042;14.472;2023-02-28T08:21:05;25.00;;;12.17;;
9821;SDS011;4950;46.042;14.472;2023-02-28T08:23:34;24.73;;;13.13;;
9821;SDS011;4950;46.042;14.472;2023-02-28T08:26:00;24.67;;;13.47;;
9821;SDS011;4950;46.042;14.472;2023-02-28T08:28:27;26.23;;;12.83;;
9821;SDS011;4950;46.042;14.472;2023-02-28T08:30:54;25.57;;;12.60;;
9821;SDS011;4950;46.042;14.472;2023-02-28T08:33:21;21.53;;;12.77;;
9821;SDS011;4950;46.042;14.472;2023-02-28T08:35:48;27.27;;;14.07;;
9821;SDS011;4950;46.042;14.472;2023-02-28T08:38:18;25.67;;;13.00;;
9821;SDS011;4950;46.042;14.472;2023-02-28T08:40:47;21.67;;;13.07;;
9821;SDS011;4950;46.042;14.472;2023-02-28T08:43:13;26.23;;;13.70;;
9821;SDS011;4950;46.042;14.472;2023-02-28T08:45:40;20.73;;;12.67;;
9821;SDS011;4950;46.042;14.472;2023-02-28T08:48:07;26.43;;;12.17;;
9821;SDS011;4950;46.042;14.472;2023-02-28T08:50:33;22.67;;;13.17;;
9821;SDS011;4950;46.042;14.472;2023-02-28T08:53:00;26.17;;;13.73;;
9821;SDS011;4950;46.042;14.472;2023-02-28T08:55:27;24.20;;;13.77;;
9821;SDS011;4950;46.042;14.472;2023-02-28T08:57:55;24.70;;;13.60;;
9821;SDS011;4950;46.042;14.472;2023-02-28T09:00:22;25.23;;;14.43;;
9821;SDS011;4950;46.042;14.472;2023-02-28T09:02:49;29.50;;;13.70;;
9821;SDS011;4950;46.042;14.472;2023-02-28T09:05:16;23.67;;;13.70;;
9821;SDS011;4950;46.042;14.472;2023-02-28T09:07:42;25.47;;;12.83;;
9821;SDS011;4950;46.042;14.472;2023-02-28T09:10:09;22.30;;;13.43;;
9821;SDS011;4950;46.042;14.472;2023-02-28T09:12:37;22.70;;;13.10;;
9821;SDS011;4950;46.042;14.472;2023-02-28T09:15:06;21.17;;;12.97;;
9821;SDS011;4950;46.042;14.472;2023-02-28T09:20:00;22.97;;;12.83;;
9821;SDS011;4950;46.042;14.472;2023-02-28T09:22:27;28.93;;;13.67;;
9821;SDS011;4950;46.042;14.472;2023-02-28T09:24:54;28.27;;;14.47;;
9821;SDS011;4950;46.042;14.472;2023-02-28T09:27:21;25.13;;;14.73;;
9821;SDS011;4950;46.042;14.472;2023-02-28T09:29:47;26.13;;;14.13;;
9821;SDS011;4950;46.042;14.472;2023-02-28T09:32:15;29.50;;;14.83;;
9821;SDS011;4950;46.042;14.472;2023-02-28T09:34:43;30.20;;;15.10;;
9821;SDS011;4950;46.042;14.472;2023-02-28T09:37:09;21.93;;;13.63;;
9821;SDS011;4950;46.042;14.472;2023-02-28T09:39:36;22.13;;;13.90;;
9821;SDS011;4950;46.042;14.472;2023-02-28T09:42:03;28.23;;;14.53;;
9821;SDS011;4950;46.042;14.472;2023-02-28T09:44:34;24.33;;;13.80;;
9821;SDS011;4950;46.042;14.472;2023-02-28T09:47:05;26.83;;;13.10;;
9821;SDS011;4950;46.042;14.472;2023-02-28T09:49:39;24.47;;;13.83;;
9821;SDS011;4950;46.042;14.472;2023-02-28T09:52:12;23.70;;;12.80;;
9821;SDS011;4950;46.042;14.472;2023-02-28T09:54:41;22.90;;;12.53;;
9821;SDS011;4950;46.042;14.472;2023-02-28T09:57:11;20.83;;;13.03;;
9821;SDS011;4950;46.042;14.472;2023-02-28T09:59:55;23.53;;;12.93;;
9821;SDS011;4950;46.042;14.472;2023-02-28T10:05:33;22.67;;;12.07;;
9821;SDS011;4950;46.042;14.472;2023-02-28T10:08:05;25.20;;;13.77;;
9821;SDS011;4950;46.042;14.472;2023-02-28T10:10:39;32.00;;;14.23;;
9821;SDS011;4950;46.042;14.472;2023-02-28T10:13:12;24.60;;;13.40;;
9821;SDS011;4950;46.042;14.472;2023-02-28T10:15:44;20.90;;;12.00;;
9821;SDS011;4950;46.042;14.472;2023-02-28T10:18:18;22.23;;;12.90;;
9821;SDS011;4950;46.042;14.472;2023-02-28T10:20:51;23.07;;;12.37;;
9821;SDS011;4950;46.042;14.472;2023-02-28T10:23:23;21.20;;;12.60;;
9821;SDS011;4950;46.042;14.472;2023-02-28T10:25:53;19.60;;;12.00;;
9821;SDS011;4950;46.042;14.472;2023-02-28T10:28:23;21.93;;;12.67;;
9821;SDS011;4950;46.042;14.472;2023-02-28T10:30:52;26.93;;;12.93;;
9821;SDS011;4950;46.042;14.472;2023-02-28T10:33:21;22.17;;;13.60;;
9821;SDS011;4950;46.042;14.472;2023-02-28T10:35:52;23.50;;;12.20;;
9821;SDS011;4950;46.042;14.472;2023-02-28T10:38:20;23.30;;;12.90;;
9821;SDS011;4950;46.042;14.472;2023-02-28T10:40:48;20.95;;;12.45;;
9821;SDS011;4950;46.042;14.472;2023-02-28T10:43:19;21.47;;;11.73;;
9821;SDS011;4950;46.042;14.472;2023-02-28T10:45:53;24.00;;;13.83;;
9821;SDS011;4950;46.042;14.472;2023-02-28T10:48:32;23.43;;;13.77;;
9821;SDS011;4950;46.042;14.472;2023-02-28T10:51:01;27.90;;;14.93;;
9821;SDS011;4950;46.042;14.472;2023-02-28T10:53:34;25.55;;;14.45;;
9821;SDS011;4950;46.042;14.472;2023-02-28T10:56:04;26.50;;;15.03;;
9821;SDS011;4950;46.042;14.472;2023-02-28T10:58:41;28.73;;;14.07;;
9821;SDS011;4950;46.042;14.472;2023-02-28T11:01:14;26.03;;;13.90;;
9821;SDS011;4950;46.042;14.472;2023-02-28T11:03:42;22.30;;;13.38;;
9821;SDS011;4950;46.042;14.472;2023-02-28T11:06:14;29.13;;;14.87;;
9821;SDS011;4950;46.042;14.472;2023-02-28T11:08:47;26.50;;;14.90;;
9821;SDS011;4950;46.042;14.472;2023-02-28T11:11:16;22.60;;;14.03;;
9821;SDS011;4950;46.042;14.472;2023-02-28T11:13:45;25.90;;;13.88;;
9821;SDS011;4950;46.042;14.472;2023-02-28T11:16:15;26.00;;;15.13;;
9821;SDS011;4950;46.042;14.472;2023-02-28T11:18:43;24.63;;;15.17;;
9821;SDS011;4950;46.042;14.472;2023-02-28T11:21:24;24.45;;;14.27;;
9821;SDS011;4950;46.042;14.472;2023-02-28T11:23:56;26.95;;;15.23;;
9821;SDS011;4950;46.042;14.472;2023-02-28T11:26:37;27.73;;;15.93;;
9821;SDS011;4950;46.042;14.472;2023-02-28T11:29:11;26.08;;;15.32;;
9821;SDS011;4950;46.042;14.472;2023-02-28T11:31:44;26.58;;;15.00;;
9821;SDS011;4950;46.042;14.472;2023-02-28T11:34:27;26.30;;;15.00;;
9821;SDS011;4950;46.042;14.472;2023-02-28T11:36:56;28.23;;;14.30;;
9821;SDS011;4950;46.042;14.472;2023-02-28T11:39:25;24.23;;;14.23;;
9821;SDS011;4950;46.042;14.472;2023-02-28T11:41:57;29.83;;;15.52;;
9821;SDS011;4950;46.042;14.472;2023-02-28T11:44:35;22.83;;;13.68;;
9821;SDS011;4950;46.042;14.472;2023-02-28T11:47:17;25.67;;;14.10;;
9821;SDS011;4950;46.042;14.472;2023-02-28T11:49:54;27.10;;;13.45;;
9821;SDS011;4950;46.042;14.472;2023-02-28T11:52:33;25.20;;;14.55;;
9821;SDS011;4950;46.042;14.472;2023-02-28T11:55:11;26.73;;;13.80;;
9821;SDS011;4950;46.042;14.472;2023-02-28T11:57:52;22.88;;;13.82;;
9821;SDS011;4950;46.042;14.472;2023-02-28T12:00:33;24.27;;;13.87;;
9821;SDS011;4950;46.042;14.472;2023-02-28T12:03:10;28.10;;;16.90;;
9821;SDS011;4950;46.042;14.472;2023-02-28T12:05:53;25.55;;;14.57;;
9821;SDS011;4950;46.042;14.472;2023-02-28T12:08:32;26.58;;;14.35;;
9821;SDS011;4950;46.042;14.472;2023-02-28T12:11:11;25.73;;;15.20;;
9821;SDS011;4950;46.042;14.472;2023-02-28T12:13:46;28.40;;;15.50;;
9821;SDS011;4950;46.042;14.472;2023-02-28T12:16:24;29.15;;;15.68;;
9821;SDS011;4950;46.042;14.472;2023-02-28T12:19:19;28.10;;;14.25;;
9821;SDS011;4950;46.042;14.472;2023-02-28T12:21:54;26.33;;;14.57;;
9821;SDS011;4950;46.042;14.472;2023-02-28T12:24:42;25.30;;;15.50;;
9821;SDS011;4950;46.042;14.472;2023-02-28T12:27:21;24.25;;;14.70;;
9821;SDS011;4950;46.042;14.472;2023-02-28T12:29:53;28.42;;;14.52;;
9821;SDS011;4950;46.042;14.472;2023-02-28T12:32:25;21.00;;;13.88;;
9821;SDS011;4950;46.042;14.472;2023-02-28T12:34:57;29.40;;;16.88;;
9821;SDS011;4950;46.042;14.472;2023-02-28T12:37:27;25.10;;;15.25;;
9821;SDS011;4950;46.042;14.472;2023-02-28T12:40:03;30.80;;;14.82;;
9821;SDS011;4950;46.042;14.472;2023-02-28T12:42:36;29.42;;;14.77;;
9821;SDS011;4950;46.042;14.472;2023-02-28T12:45:09;23.08;;;13.52;;
9821;SDS011;4950;46.042;14.472;2023-02-28T12:47:40;23.35;;;13.57;;
9821;SDS011;4950;46.042;14.472;2023-02-28T12:50:11;21.83;;;14.02;;
9821;SDS011;4950;46.042;14.472;2023-02-28T12:52:40;26.33;;;13.90;;
9821;SDS011;4950;46.042;14.472;2023-02-28T12:55:15;24.23;;;13.65;;
9821;SDS011;4950;46.042;14.472;2023-02-28T12:57:50;26.70;;;14.27;;
9821;SDS011;4950;46.042;14.472;2023-02-28T13:00:25;23.70;;;13.20;;
9821;SDS011;4950;46.042;14.472;2023-02-28T13:06:20;24.70;;;13.15;;
9821;SDS011;4950;46.042;14.472;2023-02-28T13:09:04;26.25;;;14.38;;
9821;SDS011;4950;46.042;14.472;2023-02-28T13:11:39;27.05;;;14.70;;
9821;SDS011;4950;46.042;14.472;2023-02-28T13:14:16;23.88;;;13.95;;
9821;SDS011;4950;46.042;14.472;2023-02-28T13:16:50;26.75;;;13.15;;
9821;SDS011;4950;46.042;14.472;2023-02-28T13:19:30;22.33;;;14.05;;
9821;SDS011;4950;46.042;14.472;2023-02-28T13:21:58;23.33;;;13.43;;
9821;SDS011;4950;46.042;14.472;2023-02-28T13:24:40;25.60;;;13.23;;
9821;SDS011;4950;46.042;14.472;2023-02-28T13:33:22;20.88;;;13.45;;
9821;SDS011;4950;46.042;14.472;2023-02-28T13:36:01;21.65;;;14.68;;
9821;SDS011;4950;46.042;14.472;2023-02-28T13:38:35;23.25;;;14.02;;
9821;SDS011;4950;46.042;14.472;2023-02-28T13:44:22;21.60;;;13.00;;
9821;SDS011;4950;46.042;14.472;2023-02-28T13:49:46;22.20;;;13.20;;
9821;SDS011;4950;46.042;14.472;2023-02-28T13:52:15;23.70;;;13.30;;
9821;SDS011;4950;46.042;14.472;2023-02-28T13:54:57;24.13;;;14.43;;
9821;SDS011;4950;46.042;14.472;2023-02-28T13:57:38;29.10;;;14.95;;
9821;SDS011;4950;46.042;14.472;2023-02-28T14:00:19;26.88;;;15.13;;
9821;SDS011;4950;46.042;14.472;2023-02-28T14:03:01;22.58;;;13.85;;
9821;SDS011;4950;46.042;14.472;2023-02-28T14:05:40;24.00;;;14.10;;
9821;SDS011;4950;46.042;14.472;2023-02-28T14:08:11;27.73;;;15.23;;
9821;SDS011;4950;46.042;14.472;2023-02-28T14:10:42;23.00;;;14.45;;
9821;SDS011;4950;46.042;14.472;2023-02-28T14:13:12;24.48;;;16.15;;
9821;SDS011;4950;46.042;14.472;2023-02-28T14:16:04;23.08;;;15.77;;
9821;SDS011;4950;46.042;14.472;2023-02-28T14:18:33;25.60;;;15.13;;
9821;SDS011;4950;46.042;14.472;2023-02-28T14:21:03;23.25;;;14.23;;
9821;SDS011;4950;46.042;14.472;2023-02-28T14:26:44;26.45;;;16.38;;
9821;SDS011;4950;46.042;14.472;2023-02-28T14:29:42;28.40;;;17.08;;
9821;SDS011;4950;46.042;14.472;2023-02-28T14:32:28;28.58;;;15.95;;
9821;SDS011;4950;46.042;14.472;2023-02-28T14:35:03;29.23;;;17.10;;
9821;SDS011;4950;46.042;14.472;2023-02-28T14:40:11;30.60;;;17.30;;
9821;SDS011;4950;46.042;14.472;2023-02-28T14:42:46;30.10;;;17.13;;
9821;SDS011;4950;46.042;14.472;2023-02-28T14:45:18;31.67;;;18.00;;
9821;SDS011;4950;46.042;14.472;2023-02-28T14:47:47;32.20;;;17.27;;
9821;SDS011;4950;46.042;14.472;2023-02-28T14:50:19;30.02;;;18.17;;
9821;SDS011;4950;46.042;14.472;2023-02-28T14:52:47;34.40;;;17.15;;
9821;SDS011;4950;46.042;14.472;2023-02-28T14:55:18;30.02;;;17.52;;
9821;SDS011;4950;46.042;14.472;2023-02-28T14:57:53;32.40;;;17.77;;
9821;SDS011;4950;46.042;14.472;2023-02-28T15:00:22;31.25;;;15.27;;
9821;SDS011;4950;46.042;14.472;2023-02-28T15:02:52;33.45;;;17.70;;
9821;SDS011;4950;46.042;14.472;2023-02-28T15:05:23;32.72;;;18.48;;
9821;SDS011;4950;46.042;14.472;2023-02-28T15:08:00;30.52;;;17.00;;
9821;SDS011;4950;46.042;14.472;2023-02-28T15:10:30;32.78;;;17.65;;
9821;SDS011;4950;46.042;14.472;2023-02-28T15:12:58;27.35;;;17.92;;
9821;SDS011;4950;46.042;14.472;2023-02-28T15:15:32;29.38;;;18.63;;
9821;SDS011;4950;46.042;14.472;2023-02-28T15:18:10;32.55;;;18.20;;
9821;SDS011;4950;46.042;14.472;2023-02-28T15:20:48;29.45;;;18.23;;
9821;SDS011;4950;46.042;14.472;2023-02-28T15:23:16;30.83;;;18.83;;
9821;SDS011;4950;46.042;14.472;2023-02-28T15:25:44;29.43;;;18.83;;
9821;SDS011;4950;46.042;14.472;2023-02-28T15:28:13;28.00;;;18.03;;
9821;SDS011;4950;46.042;14.472;2023-02-28T15:30:51;34.90;;;19.80;;
9821;SDS011;4950;46.042;14.472;2023-02-28T15:33:25;39.13;;;19.42;;
9821;SDS011;4950;46.042;14.472;2023-02-28T15:36:03;34.80;;;19.48;;
9821;SDS011;4950;46.042;14.472;2023-02-28T15:38:33;32.60;;;19.40;;
9821;SDS011;4950;46.042;14.472;2023-02-28T15:43:33;29.63;;;19.87;;
9821;SDS011;4950;46.042;14.472;2023-02-28T15:46:02;30.73;;;19.43;;
9821;SDS011;4950;46.042;14.472;2023-02-28T15:48:33;30.10;;;18.23;;
9821;SDS011;4950;46.042;14.472;2023-02-28T15:51:04;37.13;;;20.13;;
9821;SDS011;4950;46.042;14.472;2023-02-28T15:53:35;34.40;;;19.60;;